sensor_id;sensor_type;location;lat;lon;timestamp;pressure;altitude;pressure_sealevel;temperature;humidity
46756;BME280;32506;52.826;-1.192;2023-10-09T00:02:09;101415.06;;;17.72;55.64
46756;BME280;32506;52.826;-1.192;2023-10-09T00:04:35;101421.53;;;17.71;55.50
46756;BME280;32506;52.826;-1.192;2023-10-09T00:07:06;101421.53;;;17.71;55.58
46756;BME280;32506;52.826;-1.192;2023-10-09T00:09:36;101422.84;;;17.68;55.31
46756;BME280;32506;52.826;-1.192;2023-10-09T00:12:18;101428.47;;;17.67;55.48
46756;BME280;32506;52.826;-1.192;2023-10-09T00:14:54;101426.03;;;17.65;55.49
46756;BME280;32506;52.826;-1.192;2023-10-09T00:17:32;101433.53;;;17.63;55.22
46756;BME280;32506;52.826;-1.192;2023-10-09T00:19:57;101448.13;;;17.62;55.30
46756;BME280;32506;52.826;-1.192;2023-10-09T00:22:25;101442.97;;;17.60;55.16
46756;BME280;32506;52.826;-1.192;2023-10-09T00:24:51;101445.88;;;17.59;55.38
46756;BME280;32506;52.826;-1.192;2023-10-09T00:27:35;101451.53;;;17.57;55.35
46756;BME280;32506;52.826;-1.192;2023-10-09T00:30:01;101451.78;;;17.56;55.31
46756;BME280;32506;52.826;-1.192;2023-10-09T00:32:27;101454.72;;;17.54;55.29
46756;BME280;32506;52.826;-1.192;2023-10-09T00:34:57;101446.03;;;17.52;55.29
46756;BME280;32506;52.826;-1.192;2023-10-09T00:37:25;101455.22;;;17.51;55.44
46756;BME280;32506;52.826;-1.192;2023-10-09T00:39:52;101450.03;;;17.50;55.48
46756;BME280;32506;52.826;-1.192;2023-10-09T00:42:23;101438.66;;;17.48;55.63
46756;BME280;32506;52.826;-1.192;2023-10-09T00:44:57;101455.91;;;17.47;55.46
46756;BME280;32506;52.826;-1.192;2023-10-09T00:47:28;101459.66;;;17.45;55.63
46756;BME280;32506;52.826;-1.192;2023-10-09T00:50:08;101459.66;;;17.45;55.34
46756;BME280;32506;52.826;-1.192;2023-10-09T00:52:42;101465.31;;;17.44;55.56
46756;BME280;32506;52.826;-1.192;2023-10-09T00:55:20;101466.84;;;17.40;55.64
46756;BME280;32506;52.826;-1.192;2023-10-09T00:58:08;101462.50;;;17.39;55.80
46756;BME280;32506;52.826;-1.192;2023-10-09T01:00:41;101462.72;;;17.37;55.59
46756;BME280;32506;52.826;-1.192;2023-10-09T01:03:11;101455.91;;;17.35;55.73
46756;BME280;32506;52.826;-1.192;2023-10-09T01:05:43;101448.91;;;17.34;55.76
46756;BME280;32506;52.826;-1.192;2023-10-09T01:08:29;101445.34;;;17.33;55.60
46756;BME280;32506;52.826;-1.192;2023-10-09T01:11:16;101429.38;;;17.32;55.61
46756;BME280;32506;52.826;-1.192;2023-10-09T01:13:48;101420.69;;;17.30;55.70
46756;BME280;32506;52.826;-1.192;2023-10-09T01:16:18;101427.16;;;17.28;55.70
46756;BME280;32506;52.826;-1.192;2023-10-09T01:18:44;101432.56;;;17.28;55.80
46756;BME280;32506;52.826;-1.192;2023-10-09T01:21:14;101423.88;;;17.26;55.77
46756;BME280;32506;52.826;-1.192;2023-10-09T01:23:46;101418.72;;;17.25;55.88
46756;BME280;32506;52.826;-1.192;2023-10-09T01:26:30;101417.91;;;17.24;55.73
46756;BME280;32506;52.826;-1.192;2023-10-09T01:28:58;101423.53;;;17.23;55.85
46756;BME280;32506;52.826;-1.192;2023-10-09T01:31:26;101435.41;;;17.22;55.71
46756;BME280;32506;52.826;-1.192;2023-10-09T01:33:52;101425.88;;;17.19;55.93
46756;BME280;32506;52.826;-1.192;2023-10-09T01:36:19;101423.19;;;17.19;55.89
46756;BME280;32506;52.826;-1.192;2023-10-09T01:39:00;101419.88;;;17.17;55.80
46756;BME280;32506;52.826;-1.192;2023-10-09T01:41:31;101419.06;;;17.17;55.67
46756;BME280;32506;52.826;-1.192;2023-10-09T01:43:59;101415.56;;;17.16;55.66
46756;BME280;32506;52.826;-1.192;2023-10-09T01:46:29;101409.56;;;17.14;55.78
46756;BME280;32506;52.826;-1.192;2023-10-09T01:48:58;101405.22;;;17.13;55.76
46756;BME280;32506;52.826;-1.192;2023-10-09T01:51:33;101404.63;;;17.11;55.77
46756;BME280;32506;52.826;-1.192;2023-10-09T01:54:02;101412.75;;;17.11;55.72
46756;BME280;32506;52.826;-1.192;2023-10-09T01:56:27;101407.59;;;17.09;55.57
46756;BME280;32506;52.826;-1.192;2023-10-09T01:58:53;101405.94;;;17.08;55.60
46756;BME280;32506;52.826;-1.192;2023-10-09T02:01:22;101394.53;;;17.06;55.55
46756;BME280;32506;52.826;-1.192;2023-10-09T02:03:49;101392.66;;;17.07;55.66
46756;BME280;32506;52.826;-1.192;2023-10-09T02:06:17;101401.59;;;17.07;55.80
46756;BME280;32506;52.826;-1.192;2023-10-09T02:08:52;101387.47;;;17.05;55.87
46756;BME280;32506;52.826;-1.192;2023-10-09T02:11:18;101388.56;;;17.04;55.96
46756;BME280;32506;52.826;-1.192;2023-10-09T02:14:02;101386.09;;;17.03;55.92
46756;BME280;32506;52.826;-1.192;2023-10-09T02:16:30;101385.50;;;17.01;55.91
46756;BME280;32506;52.826;-1.192;2023-10-09T02:19:07;101387.41;;;17.00;55.81
46756;BME280;32506;52.826;-1.192;2023-10-09T02:21:33;101381.41;;;16.98;55.84
46756;BME280;32506;52.826;-1.192;2023-10-09T02:24:02;101378.69;;;16.98;55.68
46756;BME280;32506;52.826;-1.192;2023-10-09T02:26:48;101369.19;;;16.96;56.00
46756;BME280;32506;52.826;-1.192;2023-10-09T02:29:16;101366.72;;;16.94;55.87
46756;BME280;32506;52.826;-1.192;2023-10-09T02:31:45;101366.97;;;16.92;55.96
46756;BME280;32506;52.826;-1.192;2023-10-09T02:34:17;101371.53;;;16.92;55.78
46756;BME280;32506;52.826;-1.192;2023-10-09T02:36:46;101370.97;;;16.90;55.95
46756;BME280;32506;52.826;-1.192;2023-10-09T02:39:23;101358.47;;;16.89;55.80
46756;BME280;32506;52.826;-1.192;2023-10-09T02:41:56;101358.72;;;16.87;55.89
46756;BME280;32506;52.826;-1.192;2023-10-09T02:44:40;101360.00;;;16.85;55.75
46756;BME280;32506;52.826;-1.192;2023-10-09T02:47:14;101369.41;;;16.82;55.73
46756;BME280;32506;52.826;-1.192;2023-10-09T02:49:47;101372.34;;;16.81;55.79
46756;BME280;32506;52.826;-1.192;2023-10-09T02:52:16;101380.44;;;16.81;55.79
46756;BME280;32506;52.826;-1.192;2023-10-09T02:54:53;101375.50;;;16.77;55.79
46756;BME280;32506;52.826;-1.192;2023-10-09T02:57:26;101385.47;;;16.77;55.94
46756;BME280;32506;52.826;-1.192;2023-10-09T02:59:53;101375.16;;;16.74;55.63
46756;BME280;32506;52.826;-1.192;2023-10-09T03:02:19;101378.91;;;16.73;55.58
46756;BME280;32506;52.826;-1.192;2023-10-09T03:04:45;101395.34;;;16.71;55.77
46756;BME280;32506;52.826;-1.192;2023-10-09T03:07:10;101395.56;;;16.70;55.68
46756;BME280;32506;52.826;-1.192;2023-10-09T03:09:39;101394.97;;;16.68;55.78
46756;BME280;32506;52.826;-1.192;2023-10-09T03:12:06;101383.38;;;16.67;55.78
46756;BME280;32506;52.826;-1.192;2023-10-09T03:14:36;101369.28;;;16.65;55.93
46756;BME280;32506;52.826;-1.192;2023-10-09T03:17:06;101370.34;;;16.64;55.95
46756;BME280;32506;52.826;-1.192;2023-10-09T03:19:37;101366.25;;;16.61;55.95
46756;BME280;32506;52.826;-1.192;2023-10-09T03:22:08;101373.50;;;16.61;55.83
46756;BME280;32506;52.826;-1.192;2023-10-09T03:24:35;101371.28;;;16.58;55.64
46756;BME280;32506;52.826;-1.192;2023-10-09T03:27:04;101393.69;;;16.58;55.69
46756;BME280;32506;52.826;-1.192;2023-10-09T03:29:30;101390.41;;;16.56;55.70
46756;BME280;32506;52.826;-1.192;2023-10-09T03:31:55;101381.69;;;16.54;55.86
46756;BME280;32506;52.826;-1.192;2023-10-09T03:34:22;101371.97;;;16.53;55.92
46756;BME280;32506;52.826;-1.192;2023-10-09T03:36:50;101383.81;;;16.52;55.92
46756;BME280;32506;52.826;-1.192;2023-10-09T03:39:30;101377.00;;;16.50;55.76
46756;BME280;32506;52.826;-1.192;2023-10-09T03:41:59;101381.59;;;16.49;55.90
46756;BME280;32506;52.826;-1.192;2023-10-09T03:44:25;101365.63;;;16.48;56.05
46756;BME280;32506;52.826;-1.192;2023-10-09T03:46:54;101372.09;;;16.47;56.08
46756;BME280;32506;52.826;-1.192;2023-10-09T03:49:19;101370.69;;;16.44;56.03
46756;BME280;32506;52.826;-1.192;2023-10-09T03:51:50;101398.72;;;16.43;56.09
46756;BME280;32506;52.826;-1.192;2023-10-09T03:54:15;101393.53;;;16.41;56.05
46756;BME280;32506;52.826;-1.192;2023-10-09T03:56:43;101379.47;;;16.39;56.11
46756;BME280;32506;52.826;-1.192;2023-10-09T03:59:08;101392.13;;;16.39;56.02
46756;BME280;32506;52.826;-1.192;2023-10-09T04:01:36;101395.88;;;16.38;56.01
46756;BME280;32506;52.826;-1.192;2023-10-09T04:04:05;101375.56;;;16.35;56.19
46756;BME280;32506;52.826;-1.192;2023-10-09T04:06:33;101379.31;;;16.34;56.08
46756;BME280;32506;52.826;-1.192;2023-10-09T04:09:03;101386.59;;;16.34;56.22
46756;BME280;32506;52.826;-1.192;2023-10-09T04:11:48;101406.53;;;16.33;56.24
46756;BME280;32506;52.826;-1.192;2023-10-09T04:14:22;101398.69;;;16.31;56.00
46756;BME280;32506;52.826;-1.192;2023-10-09T04:17:01;101386.25;;;16.30;56.04
46756;BME280;32506;52.826;-1.192;2023-10-09T04:19:52;101389.16;;;16.28;55.85
46756;BME280;32506;52.826;-1.192;2023-10-09T04:22:36;101399.38;;;16.26;55.89
46756;BME280;32506;52.826;-1.192;2023-10-09T04:25:08;101387.75;;;16.26;55.97
46756;BME280;32506;52.826;-1.192;2023-10-09T04:27:40;101397.72;;;16.25;55.69
46756;BME280;32506;52.826;-1.192;2023-10-09T04:30:06;101409.81;;;16.23;55.77
46756;BME280;32506;52.826;-1.192;2023-10-09T04:32:33;101415.44;;;16.21;55.87
46756;BME280;32506;52.826;-1.192;2023-10-09T04:35:00;101397.84;;;16.19;55.67
46756;BME280;32506;52.826;-1.192;2023-10-09T04:37:46;101372.75;;;16.18;55.81
46756;BME280;32506;52.826;-1.192;2023-10-09T04:40:18;101359.47;;;16.17;55.56
46756;BME280;32506;52.826;-1.192;2023-10-09T04:43:02;101364.28;;;16.15;55.63
46756;BME280;32506;52.826;-1.192;2023-10-09T04:45:35;101399.59;;;16.13;55.58
46756;BME280;32506;52.826;-1.192;2023-10-09T04:48:19;101402.72;;;16.10;55.57
46756;BME280;32506;52.826;-1.192;2023-10-09T04:51:01;101394.63;;;16.10;55.46
46756;BME280;32506;52.826;-1.192;2023-10-09T04:54:02;101395.09;;;16.07;55.64
46756;BME280;32506;52.826;-1.192;2023-10-09T04:56:40;101402.59;;;16.05;55.61
46756;BME280;32506;52.826;-1.192;2023-10-09T04:59:18;101403.66;;;16.04;55.56
46756;BME280;32506;52.826;-1.192;2023-10-09T05:01:44;101398.50;;;16.02;55.36
46756;BME280;32506;52.826;-1.192;2023-10-09T05:04:22;101410.31;;;16.01;55.55
46756;BME280;32506;52.826;-1.192;2023-10-09T05:07:08;101403.28;;;16.00;55.43
46756;BME280;32506;52.826;-1.192;2023-10-09T05:09:49;101400.00;;;15.98;55.45
46756;BME280;32506;52.826;-1.192;2023-10-09T05:12:21;101395.66;;;15.97;55.42
46756;BME280;32506;52.826;-1.192;2023-10-09T05:14:51;101403.97;;;15.96;55.53
46756;BME280;32506;52.826;-1.192;2023-10-09T05:17:32;101419.53;;;15.93;55.55
46756;BME280;32506;52.826;-1.192;2023-10-09T05:20:00;101417.91;;;15.92;55.49
46756;BME280;32506;52.826;-1.192;2023-10-09T05:22:43;101420.81;;;15.91;55.50
46756;BME280;32506;52.826;-1.192;2023-10-09T05:25:23;101420.25;;;15.89;55.45
46756;BME280;32506;52.826;-1.192;2023-10-09T05:28:08;101415.09;;;15.87;55.53
46756;BME280;32506;52.826;-1.192;2023-10-09T05:30:57;101418.81;;;15.86;55.45
46756;BME280;32506;52.826;-1.192;2023-10-09T05:33:35;101402.88;;;15.85;55.33
46756;BME280;32506;52.826;-1.192;2023-10-09T05:36:04;101404.72;;;15.84;55.44
46756;BME280;32506;52.826;-1.192;2023-10-09T05:38:48;101411.19;;;15.83;55.58
46756;BME280;32506;52.826;-1.192;2023-10-09T05:41:27;101425.09;;;15.80;55.34
46756;BME280;32506;52.826;-1.192;2023-10-09T05:44:11;101415.97;;;15.81;55.31
46756;BME280;32506;52.826;-1.192;2023-10-09T05:46:54;101410.78;;;15.80;55.53
46756;BME280;32506;52.826;-1.192;2023-10-09T05:49:38;101413.09;;;15.76;55.41
46756;BME280;32506;52.826;-1.192;2023-10-09T05:52:22;101409.84;;;15.74;55.59
46756;BME280;32506;52.826;-1.192;2023-10-09T05:55:06;101409.00;;;15.73;55.48
46756;BME280;32506;52.826;-1.192;2023-10-09T05:57:53;101411.09;;;15.71;56.04
46756;BME280;32506;52.826;-1.192;2023-10-09T06:00:37;101423.75;;;15.71;55.77
46756;BME280;32506;52.826;-1.192;2023-10-09T06:03:21;101430.19;;;15.70;56.17
46756;BME280;32506;52.826;-1.192;2023-10-09T06:05:54;101416.94;;;15.68;56.52
46756;BME280;32506;52.826;-1.192;2023-10-09T06:08:27;101420.69;;;15.67;56.19
46756;BME280;32506;52.826;-1.192;2023-10-09T06:11:14;101426.28;;;15.66;56.42
46756;BME280;32506;52.826;-1.192;2023-10-09T06:13:59;101426.28;;;15.66;56.43
46756;BME280;32506;52.826;-1.192;2023-10-09T06:16:47;101430.06;;;15.65;56.46
46756;BME280;32506;52.826;-1.192;2023-10-09T06:19:22;101431.91;;;15.64;56.19
46756;BME280;32506;52.826;-1.192;2023-10-09T06:21:48;101432.97;;;15.63;56.42
46756;BME280;32506;52.826;-1.192;2023-10-09T06:24:31;101432.13;;;15.63;56.22
46756;BME280;32506;52.826;-1.192;2023-10-09T06:27:15;101428.63;;;15.62;56.61
46756;BME280;32506;52.826;-1.192;2023-10-09T06:30:01;101422.63;;;15.60;56.57
46756;BME280;32506;52.826;-1.192;2023-10-09T06:32:40;101429.06;;;15.59;56.39
46756;BME280;32506;52.826;-1.192;2023-10-09T06:35:17;101437.16;;;15.59;56.40
46756;BME280;32506;52.826;-1.192;2023-10-09T06:37:51;101440.91;;;15.58;56.32
46756;BME280;32506;52.826;-1.192;2023-10-09T06:43:12;101446.53;;;15.56;56.26
46756;BME280;32506;52.826;-1.192;2023-10-09T06:45:47;101455.66;;;15.55;56.10
46756;BME280;32506;52.826;-1.192;2023-10-09T06:48:20;101462.88;;;15.55;56.14
46756;BME280;32506;52.826;-1.192;2023-10-09T06:51:08;101462.06;;;15.54;55.83
46756;BME280;32506;52.826;-1.192;2023-10-09T06:53:52;101452.13;;;15.55;55.94
46756;BME280;32506;52.826;-1.192;2023-10-09T06:56:28;101469.34;;;15.54;55.75
46756;BME280;32506;52.826;-1.192;2023-10-09T06:59:04;101462.31;;;15.53;55.73
46756;BME280;32506;52.826;-1.192;2023-10-09T07:01:41;101462.53;;;15.51;55.66
46756;BME280;32506;52.826;-1.192;2023-10-09T07:04:11;101465.22;;;15.51;55.75
46756;BME280;32506;52.826;-1.192;2023-10-09T07:06:55;101474.34;;;15.50;55.62
46756;BME280;32506;52.826;-1.192;2023-10-09T07:09:22;101472.47;;;15.51;55.71
46756;BME280;32506;52.826;-1.192;2023-10-09T07:11:54;101476.00;;;15.51;55.76
46756;BME280;32506;52.826;-1.192;2023-10-09T07:14:21;101475.16;;;15.51;55.61
46756;BME280;32506;52.826;-1.192;2023-10-09T07:17:03;101474.34;;;15.50;55.58
46756;BME280;32506;52.826;-1.192;2023-10-09T07:19:48;101473.53;;;15.50;55.61
46756;BME280;32506;52.826;-1.192;2023-10-09T07:22:14;101483.25;;;15.51;55.77
46756;BME280;32506;52.826;-1.192;2023-10-09T07:24:53;101480.56;;;15.51;55.94
46756;BME280;32506;52.826;-1.192;2023-10-09T07:27:31;101474.13;;;15.52;55.94
46756;BME280;32506;52.826;-1.192;2023-10-09T07:30:18;101472.25;;;15.52;55.74
46756;BME280;32506;52.826;-1.192;2023-10-09T07:33:04;101482.81;;;15.54;55.78
46756;BME280;32506;52.826;-1.192;2023-10-09T07:38:10;101471.81;;;15.55;56.01
46756;BME280;32506;52.826;-1.192;2023-10-09T07:40:40;101480.47;;;15.57;55.95
46756;BME280;32506;52.826;-1.192;2023-10-09T07:43:39;101465.16;;;15.58;56.17
46756;BME280;32506;52.826;-1.192;2023-10-09T07:46:09;101480.06;;;15.60;56.60
46756;BME280;32506;52.826;-1.192;2023-10-09T07:48:54;101487.91;;;15.62;56.54
46756;BME280;32506;52.826;-1.192;2023-10-09T07:51:21;101497.41;;;15.65;56.67
46756;BME280;32506;52.826;-1.192;2023-10-09T07:53:56;101496.97;;;15.68;56.67
46756;BME280;32506;52.826;-1.192;2023-10-09T07:56:48;101508.13;;;15.71;56.71
46756;BME280;32506;52.826;-1.192;2023-10-09T07:59:18;101497.91;;;15.73;56.75
46756;BME280;32506;52.826;-1.192;2023-10-09T08:01:48;101509.09;;;15.77;56.87
46756;BME280;32506;52.826;-1.192;2023-10-09T08:04:30;101508.44;;;15.82;57.14
46756;BME280;32506;52.826;-1.192;2023-10-09T08:07:14;101505.06;;;15.86;57.26
46756;BME280;32506;52.826;-1.192;2023-10-09T08:09:54;101501.91;;;15.89;57.28
46756;BME280;32506;52.826;-1.192;2023-10-09T08:12:38;101508.28;;;15.95;57.46
46756;BME280;32506;52.826;-1.192;2023-10-09T08:15:09;101508.88;;;15.97;57.41
46756;BME280;32506;52.826;-1.192;2023-10-09T08:17:48;101512.53;;;16.03;57.48
46756;BME280;32506;52.826;-1.192;2023-10-09T08:20:23;101507.53;;;16.06;57.45
46756;BME280;32506;52.826;-1.192;2023-10-09T08:22:51;101510.56;;;16.10;57.88
46756;BME280;32506;52.826;-1.192;2023-10-09T08:25:18;101513.41;;;16.15;57.94
46756;BME280;32506;52.826;-1.192;2023-10-09T08:28:00;101509.00;;;16.21;58.07
46756;BME280;32506;52.826;-1.192;2023-10-09T08:30:45;101505.63;;;16.25;58.23
46756;BME280;32506;52.826;-1.192;2023-10-09T08:33:20;101508.47;;;16.31;58.42
46756;BME280;32506;52.826;-1.192;2023-10-09T08:35:53;101512.91;;;16.37;58.45
46756;BME280;32506;52.826;-1.192;2023-10-09T08:38:20;101506.63;;;16.43;58.89
46756;BME280;32506;52.826;-1.192;2023-10-09T08:40:50;101504.63;;;16.50;59.13
46756;BME280;32506;52.826;-1.192;2023-10-09T08:43:21;101512.63;;;16.57;59.28
46756;BME280;32506;52.826;-1.192;2023-10-09T08:45:52;101524.41;;;16.63;59.31
46756;BME280;32506;52.826;-1.192;2023-10-09T08:48:19;101531.81;;;16.67;59.30
46756;BME280;32506;52.826;-1.192;2023-10-09T08:50:48;101529.00;;;16.74;59.32
46756;BME280;32506;52.826;-1.192;2023-10-09T08:53:16;101525.63;;;16.78;59.55
46756;BME280;32506;52.826;-1.192;2023-10-09T08:55:42;101523.63;;;16.86;59.36
46756;BME280;32506;52.826;-1.192;2023-10-09T08:58:09;101525.66;;;16.90;59.54
46756;BME280;32506;52.826;-1.192;2023-10-09T09:01:01;101523.94;;;16.96;59.78
46756;BME280;32506;52.826;-1.192;2023-10-09T09:03:37;101526.53;;;17.03;59.70
46756;BME280;32506;52.826;-1.192;2023-10-09T09:06:04;101538.25;;;17.08;59.88
46756;BME280;32506;52.826;-1.192;2023-10-09T09:08:31;101548.13;;;17.15;59.91
46756;BME280;32506;52.826;-1.192;2023-10-09T09:10:58;101552.84;;;17.19;60.05
46756;BME280;32506;52.826;-1.192;2023-10-09T09:13:46;101551.88;;;17.25;59.95
46756;BME280;32506;52.826;-1.192;2023-10-09T09:16:22;101548.25;;;17.32;59.90
46756;BME280;32506;52.826;-1.192;2023-10-09T09:21:29;101553.06;;;17.41;59.98
46756;BME280;32506;52.826;-1.192;2023-10-09T09:24:00;101551.31;;;17.47;59.80
46756;BME280;32506;52.826;-1.192;2023-10-09T09:26:34;101546.84;;;17.53;59.97
46756;BME280;32506;52.826;-1.192;2023-10-09T09:29:06;101528.06;;;17.58;59.94
46756;BME280;32506;52.826;-1.192;2023-10-09T09:31:34;101526.53;;;17.62;59.78
46756;BME280;32506;52.826;-1.192;2023-10-09T09:34:07;101525.56;;;17.68;59.79
46756;BME280;32506;52.826;-1.192;2023-10-09T09:36:56;101520.03;;;17.75;59.93
46756;BME280;32506;52.826;-1.192;2023-10-09T09:39:26;101521.19;;;17.79;59.79
46756;BME280;32506;52.826;-1.192;2023-10-09T09:41:56;101517.53;;;17.85;60.08
46756;BME280;32506;52.826;-1.192;2023-10-09T09:44:23;101521.78;;;17.93;60.08
46756;BME280;32506;52.826;-1.192;2023-10-09T09:46:57;101526.22;;;17.99;60.10
46756;BME280;32506;52.826;-1.192;2023-10-09T09:49:25;101530.44;;;18.07;60.19
46756;BME280;32506;52.826;-1.192;2023-10-09T09:51:58;101532.75;;;18.15;60.07
46756;BME280;32506;52.826;-1.192;2023-10-09T09:54:26;101535.09;;;18.23;60.24
46756;BME280;32506;52.826;-1.192;2023-10-09T09:56:54;101535.88;;;18.36;60.05
46756;BME280;32506;52.826;-1.192;2023-10-09T09:59:25;101533.34;;;18.46;60.17
46756;BME280;32506;52.826;-1.192;2023-10-09T10:01:55;101525.41;;;18.56;60.00
46756;BME280;32506;52.826;-1.192;2023-10-09T10:04:26;101537.59;;;18.71;59.99
46756;BME280;32506;52.826;-1.192;2023-10-09T10:06:54;101527.84;;;18.87;60.06
46756;BME280;32506;52.826;-1.192;2023-10-09T10:09:40;101524.91;;;19.05;59.97
46756;BME280;32506;52.826;-1.192;2023-10-09T10:12:10;101522.78;;;19.24;60.26
46756;BME280;32506;52.826;-1.192;2023-10-09T10:14:56;101524.47;;;19.48;60.07
46756;BME280;32506;52.826;-1.192;2023-10-09T10:17:27;101514.72;;;19.69;60.23
46756;BME280;32506;52.826;-1.192;2023-10-09T10:20:03;101514.47;;;19.92;60.38
46756;BME280;32506;52.826;-1.192;2023-10-09T10:22:44;101513.16;;;20.17;60.18
46756;BME280;32506;52.826;-1.192;2023-10-09T10:28:24;101523.53;;;20.75;60.37
46756;BME280;32506;52.826;-1.192;2023-10-09T10:31:08;101518.56;;;20.99;60.25
46756;BME280;32506;52.826;-1.192;2023-10-09T10:36:20;101511.53;;;21.51;60.00
46756;BME280;32506;52.826;-1.192;2023-10-09T10:38:59;101524.75;;;21.80;59.99
46756;BME280;32506;52.826;-1.192;2023-10-09T10:41:35;101530.28;;;22.06;60.06
46756;BME280;32506;52.826;-1.192;2023-10-09T10:44:29;101535.31;;;22.35;59.56
46756;BME280;32506;52.826;-1.192;2023-10-09T10:47:08;101529.06;;;22.60;59.20
46756;BME280;32506;52.826;-1.192;2023-10-09T10:49:58;101529.34;;;22.89;59.01
46756;BME280;32506;52.826;-1.192;2023-10-09T10:52:27;101532.66;;;23.17;59.07
46756;BME280;32506;52.826;-1.192;2023-10-09T10:55:13;101533.41;;;23.43;58.78
46756;BME280;32506;52.826;-1.192;2023-10-09T10:57:43;101534.16;;;23.70;58.33
46756;BME280;32506;52.826;-1.192;2023-10-09T11:00:31;101535.41;;;23.98;58.35
46756;BME280;32506;52.826;-1.192;2023-10-09T11:03:22;101534.75;;;24.27;57.85
46756;BME280;32506;52.826;-1.192;2023-10-09T11:06:29;101534.28;;;24.54;57.42
46756;BME280;32506;52.826;-1.192;2023-10-09T11:09:03;101522.38;;;24.79;57.06
46756;BME280;32506;52.826;-1.192;2023-10-09T11:11:49;101525.97;;;25.04;56.85
46756;BME280;32506;52.826;-1.192;2023-10-09T11:14:15;101527.13;;;25.27;56.76
46756;BME280;32506;52.826;-1.192;2023-10-09T11:16:43;101520.34;;;25.49;56.33
46756;BME280;32506;52.826;-1.192;2023-10-09T11:19:22;101531.28;;;25.73;55.94
46756;BME280;32506;52.826;-1.192;2023-10-09T11:22:01;101525.47;;;25.99;55.71
46756;BME280;32506;52.826;-1.192;2023-10-09T11:24:34;101533.97;;;26.22;55.51
46756;BME280;32506;52.826;-1.192;2023-10-09T11:27:04;101538.53;;;26.45;55.03
46756;BME280;32506;52.826;-1.192;2023-10-09T11:29:33;101530.81;;;26.67;54.52
46756;BME280;32506;52.826;-1.192;2023-10-09T11:32:09;101528.25;;;26.89;54.73
46756;BME280;32506;52.826;-1.192;2023-10-09T11:34:49;101528.94;;;27.14;54.14
46756;BME280;32506;52.826;-1.192;2023-10-09T11:37:20;101530.97;;;27.36;53.80
46756;BME280;32506;52.826;-1.192;2023-10-09T11:39:56;101532.75;;;27.60;53.38
46756;BME280;32506;52.826;-1.192;2023-10-09T11:42:22;101532.00;;;27.82;53.17
46756;BME280;32506;52.826;-1.192;2023-10-09T11:45:23;101529.25;;;28.10;52.85
46756;BME280;32506;52.826;-1.192;2023-10-09T11:47:51;101524.59;;;28.33;52.81
46756;BME280;32506;52.826;-1.192;2023-10-09T11:50:47;101524.72;;;28.65;52.31
46756;BME280;32506;52.826;-1.192;2023-10-09T11:53:18;101528.88;;;28.85;51.70
46756;BME280;32506;52.826;-1.192;2023-10-09T11:55:50;101517.53;;;29.09;51.53
46756;BME280;32506;52.826;-1.192;2023-10-09T11:58:19;101514.72;;;29.32;51.53
46756;BME280;32506;52.826;-1.192;2023-10-09T12:00:57;101513.69;;;29.59;51.18
46756;BME280;32506;52.826;-1.192;2023-10-09T12:03:31;101504.47;;;29.81;50.55
46756;BME280;32506;52.826;-1.192;2023-10-09T12:06:01;101499.69;;;30.04;50.59
46756;BME280;32506;52.826;-1.192;2023-10-09T12:08:31;101505.34;;;30.25;50.15
46756;BME280;32506;52.826;-1.192;2023-10-09T12:10:57;101506.81;;;30.49;49.78
46756;BME280;32506;52.826;-1.192;2023-10-09T12:13:24;101500.78;;;30.73;49.57
46756;BME280;32506;52.826;-1.192;2023-10-09T12:15:51;101497.00;;;30.95;49.13
46756;BME280;32506;52.826;-1.192;2023-10-09T12:18:21;101496.91;;;31.22;48.42
46756;BME280;32506;52.826;-1.192;2023-10-09T12:20:49;101497.56;;;31.49;48.42
46756;BME280;32506;52.826;-1.192;2023-10-09T12:23:19;101492.72;;;31.75;47.77
46756;BME280;32506;52.826;-1.192;2023-10-09T12:25:44;101486.88;;;31.98;47.58
46756;BME280;32506;52.826;-1.192;2023-10-09T12:28:10;101485.25;;;32.18;47.24
46756;BME280;32506;52.826;-1.192;2023-10-09T12:30:40;101485.34;;;32.43;46.22
46756;BME280;32506;52.826;-1.192;2023-10-09T12:33:07;101479.53;;;32.69;46.02
46756;BME280;32506;52.826;-1.192;2023-10-09T12:35:39;101482.03;;;32.95;45.59
46756;BME280;32506;52.826;-1.192;2023-10-09T12:38:05;101477.22;;;33.17;45.24
46756;BME280;32506;52.826;-1.192;2023-10-09T12:40:34;101469.97;;;33.37;45.06
46756;BME280;32506;52.826;-1.192;2023-10-09T12:43:01;101468.53;;;33.56;44.49
46756;BME280;32506;52.826;-1.192;2023-10-09T12:45:27;101469.16;;;33.77;44.20
46756;BME280;32506;52.826;-1.192;2023-10-09T12:47:56;101457.03;;;33.94;43.87
46756;BME280;32506;52.826;-1.192;2023-10-09T12:50:27;101461.34;;;34.08;43.46
46756;BME280;32506;52.826;-1.192;2023-10-09T12:52:55;101465.25;;;34.19;43.18
46756;BME280;32506;52.826;-1.192;2023-10-09T12:55:20;101459.69;;;34.32;42.93
46756;BME280;32506;52.826;-1.192;2023-10-09T12:57:47;101452.91;;;34.45;43.02
46756;BME280;32506;52.826;-1.192;2023-10-09T13:00:13;101446.47;;;34.57;42.53
46756;BME280;32506;52.826;-1.192;2023-10-09T13:02:50;101441.25;;;34.71;42.42
46756;BME280;32506;52.826;-1.192;2023-10-09T13:05:16;101436.47;;;34.84;42.34
46756;BME280;32506;52.826;-1.192;2023-10-09T13:07:52;101439.59;;;34.99;42.44
46756;BME280;32506;52.826;-1.192;2023-10-09T13:10:18;101429.16;;;35.11;42.00
46756;BME280;32506;52.826;-1.192;2023-10-09T13:12:44;101429.03;;;35.24;41.89
46756;BME280;32506;52.826;-1.192;2023-10-09T13:15:10;101426.19;;;35.36;42.03
46756;BME280;32506;52.826;-1.192;2023-10-09T13:17:39;101426.50;;;35.51;41.59
46756;BME280;32506;52.826;-1.192;2023-10-09T13:20:05;101434.34;;;35.65;41.77
46756;BME280;32506;52.826;-1.192;2023-10-09T13:22:42;101435.81;;;35.78;41.41
46756;BME280;32506;52.826;-1.192;2023-10-09T13:25:09;101434.88;;;35.90;41.42
46756;BME280;32506;52.826;-1.192;2023-10-09T13:27:42;101432.31;;;36.01;41.08
46756;BME280;32506;52.826;-1.192;2023-10-09T13:30:08;101430.13;;;36.10;41.40